This is the latest recevied weather packets stored in our database for station/object N0RRC. If no packets are shown the sender has not sent any weather packets the latest 10 day(s).
| Time | Temp. | Humidity | Pressure | Rain* | Wind** | Luminosity | Snow |
|---|---|---|---|---|---|---|---|
| 1777709816 | -1.11° C | 88% | 1018 hPa | 0 mm | - | 0 W/m² | - |
| 1777709216 | -0.56° C | 88% | 1018 hPa | 0 mm | - | 0 W/m² | - |
| 1777708636 | 0° C | 88% | 1018.1 hPa | 0 mm | - | 0 W/m² | - |
| 1777706816 | 0° C | 87% | 1018.3 hPa | 0 mm | - | 0 W/m² | - |
| 1777705017 | 0° C | 87% | 1018.4 hPa | 0 mm | - | 0 W/m² | - |
| 1777703817 | 0° C | 86% | 1018.3 hPa | 0 mm | - | 0 W/m² | - |
| 1777700815 | -0.56° C | 86% | 1018.3 hPa | 0 mm | - | 0 W/m² | - |
| 1777696637 | 0.56° C | 82% | 1018.2 hPa | 0 mm | - | 0 W/m² | - |
| 1777696017 | 0.56° C | 82% | 1018.3 hPa | 0 mm | - | 0 W/m² | - |
| 1777694817 | 0.56° C | 79% | 1018.3 hPa | 0 mm | - | 0 W/m² | - |
| 1777690616 | 2.22° C | 73% | 1018.4 hPa | 0 mm | - | 0 W/m² | - |
| 1777689417 | 2.78° C | 71% | 1018.4 hPa | 0 mm | - | 0 W/m² | - |
| 1777681016 | 6.11° C | 56% | 1017.3 hPa | 0 mm | - | 44 W/m² | - |
| 1777678015 | 6.67° C | 56% | 1017.2 hPa | 0 mm | - | 115 W/m² | - |
| 1777676216 | 6.67° C | 58% | 1017.2 hPa | 0 mm | - | 329 W/m² | - |
| 1777675617 | 6.67° C | 54% | 1017.2 hPa | 0 mm | - | 209 W/m² | - |
| 1777667218 | 5° C | 77% | 1017 hPa | 0 mm | - | 251 W/m² | - |
| 1777664818 | 5.56° C | 67% | 1016.9 hPa | 0 mm | - | 125 W/m² | - |
| 1777663617 | 6.11° C | 65% | 1016.5 hPa | 0 mm | - | 207 W/m² | - |
| 1777661817 | 6.11° C | 66% | 1016.3 hPa | 0 mm | - | 440 W/m² | - |
| 1777657618 | 5.56° C | 66% | 1016.3 hPa | 0 mm | - | 161 W/m² | - |
| 1777649218 | 5.56° C | 72% | 1016.2 hPa | 0 mm | - | 129 W/m² | - |
| 1777641417 | 4.44° C | 84% | 1015.7 hPa | 0 mm | - | 442 W/m² | - |
| 1777639616 | 4.44° C | 87% | 1015.7 hPa | 0 mm | - | 265 W/m² | - |
| 1777639016 | 3.89° C | 88% | 1015.7 hPa | 0 mm | - | 220 W/m² | - |
* Rain latest hour (hover to see other rain measurements)
** Current wind speed in m/s (hover to see current wind gust speed)